Barnum, Minnesota
Current Conditions -  °F | °C
As of 12:33 PM on Sunday 21 Dec 2014 (Local Time) from KMZH Reporting Station
Haze Haze  
Wind Chill: 26°   Ceiling: 900
Heat Index: 32°   Visibility: 4mi
Dew Point: 32°   Wind: 6mph
Humidity: 100%   Direction: 160°SSE
Pressure: 29.76"   Gusts: NA
Location:  46.5°N, 92.69°W
Report Text: KMZH 211833Z AUTO 16005KT 4SM BR OVC009 00/00 A2976 RMK AO2
Loading
Personal Weather Stations






























Interactive Weather Map New forecast layout! Learn more

10-Day Weather Forecast

Advertisements
Track Severe Weather on mobile